Time;durP1;ratioP1;P1;durP2;ratioP2;P2;SDS_P1;SDS_P2;PMS_P1;PMS_P2;Temp;Humidity;BMP_temperature;BMP_pressure;BME280_temperature;BME280_humidity;BME280_pressure;Samples;Min_cycle;Max_cycle;Signal;HPM_P1;HPM_P2
2021/01/26 00:01:05;;;;;;;3.93;3.43;;;;;;;;;;5058221;28;20484;-68
2021/01/26 00:03:33;;;;;;;3.50;2.60;;;;;;;;;;5057808;28;20449;-68
2021/01/26 00:06:00;;;;;;;3.80;2.83;;;;;;;;;;5058022;28;20579;-68
2021/01/26 00:08:27;;;;;;;4.33;3.37;;;;;;;;;;5057798;28;21056;-68
2021/01/26 00:10:54;;;;;;;3.20;3.00;;;;;;;;;;5058010;28;20449;-68
2021/01/26 00:13:22;;;;;;;4.67;2.90;;;;;;;;;;5057528;28;20449;-68
2021/01/26 00:15:49;;;;;;;4.47;3.47;;;;;;;;;;5057894;28;20461;-68
2021/01/26 00:18:17;;;;;;;3.57;3.27;;;;;;;;;;5057493;28;20445;-68
2021/01/26 00:20:44;;;;;;;5.77;3.80;;;;;;;;;;5057901;28;20449;-68
2021/01/26 00:23:11;;;;;;;4.50;3.40;;;;;;;;;;5057786;28;20524;-68
2021/01/26 00:25:39;;;;;;;3.43;3.13;;;;;;;;;;5057698;28;20499;-68
2021/01/26 00:28:07;;;;;;;5.20;3.30;;;;;;;;;;5057340;28;21018;-69
2021/01/26 00:30:35;;;;;;;3.47;3.17;;;;;;;;;;5057850;28;20920;-68
2021/01/26 00:33:04;;;;;;;3.90;3.20;;;;;;;;;;5057444;28;20520;-68
2021/01/26 00:35:31;;;;;;;5.80;2.97;;;;;;;;;;5057701;28;20487;-68
2021/01/26 00:37:59;;;;;;;2.90;2.43;;;;;;;;;;5057440;28;20556;-68
2021/01/26 00:40:27;;;;;;;4.17;3.70;;;;;;;;;;5061482;28;20568;-68
2021/01/26 00:42:54;;;;;;;4.00;3.00;;;;;;;;;;5061712;28;20441;-68
2021/01/26 00:45:21;;;;;;;3.83;3.17;;;;;;;;;;5060070;28;20489;-68
2021/01/26 00:47:49;;;;;;;5.33;3.27;;;;;;;;;;5061269;28;20505;-68
2021/01/26 00:50:17;;;;;;;5.03;3.37;;;;;;;;;;5061163;28;20917;-68
2021/01/26 00:52:44;;;;;;;4.03;3.30;;;;;;;;;;5061214;28;20437;-68
2021/01/26 00:55:11;;;;;;;4.43;3.27;;;;;;;;;;5061301;28;20461;-68
2021/01/26 00:57:38;;;;;;;3.97;3.50;;;;;;;;;;5061332;28;20453;-68
2021/01/26 01:00:07;;;;;;;4.07;3.40;;;;;;;;;;5061095;28;20789;-68
2021/01/26 01:02:34;;;;;;;5.83;3.93;;;;;;;;;;5060955;28;20448;-68
2021/01/26 01:05:03;;;;;;;3.97;3.17;;;;;;;;;;5060948;28;20453;-68
2021/01/26 01:07:31;;;;;;;3.20;2.90;;;;;;;;;;5060950;28;20972;-68
2021/01/26 01:09:57;;;;;;;3.80;3.10;;;;;;;;;;5061129;28;20441;-68
2021/01/26 01:12:24;;;;;;;3.83;3.13;;;;;;;;;;5060991;28;20450;-68
2021/01/26 01:14:51;;;;;;;4.57;3.70;;;;;;;;;;5061083;28;20473;-69
2021/01/26 01:17:18;;;;;;;4.17;3.07;;;;;;;;;;5060946;28;20445;-68
2021/01/26 01:19:45;;;;;;;4.33;3.20;;;;;;;;;;5061106;28;20449;-69
2021/01/26 01:22:13;;;;;;;5.50;3.70;;;;;;;;;;5061127;28;21004;-68
2021/01/26 01:24:41;;;;;;;4.77;3.30;;;;;;;;;;5060911;28;20465;-68
2021/01/26 01:27:07;;;;;;;4.57;3.50;;;;;;;;;;5060545;28;20483;-69
2021/01/26 01:29:34;;;;;;;6.47;4.10;;;;;;;;;;5061152;28;20639;-68
2021/01/26 01:32:01;;;;;;;5.27;4.03;;;;;;;;;;5061010;28;20454;-68
2021/01/26 01:34:28;;;;;;;5.03;3.57;;;;;;;;;;5060559;28;20972;-68
2021/01/26 01:36:56;;;;;;;5.50;3.70;;;;;;;;;;5060875;28;20441;-68
2021/01/26 01:39:24;;;;;;;4.73;3.90;;;;;;;;;;5060482;28;20551;-68
2021/01/26 01:41:51;;;;;;;4.60;3.33;;;;;;;;;;5060682;28;20509;-68
2021/01/26 01:44:18;;;;;;;4.13;3.13;;;;;;;;;;5060586;28;20527;-69
2021/01/26 01:46:52;;;;;;;4.90;3.87;;;;;;;;;;5060059;28;20498;-68
2021/01/26 01:49:21;;;;;;;4.00;3.60;;;;;;;;;;5059722;28;20476;-68
2021/01/26 01:51:48;;;;;;;4.07;3.30;;;;;;;;;;5060530;28;20456;-69
2021/01/26 01:54:17;;;;;;;4.03;3.60;;;;;;;;;;5060201;28;20462;-69
2021/01/26 01:56:48;;;;;;;4.33;3.60;;;;;;;;;;5060092;28;20437;-69
2021/01/26 01:59:18;;;;;;;5.27;3.80;;;;;;;;;;5060211;28;20449;-68
2021/01/26 02:01:45;;;;;;;3.80;3.43;;;;;;;;;;5060042;28;20995;-68
2021/01/26 02:04:14;;;;;;;4.87;3.53;;;;;;;;;;5060265;28;20474;-69
2021/01/26 02:06:43;;;;;;;6.17;3.70;;;;;;;;;;5059879;28;20958;-69
2021/01/26 02:09:14;;;;;;;3.73;3.37;;;;;;;;;;5059995;28;20445;-69
2021/01/26 02:11:41;;;;;;;4.73;3.67;;;;;;;;;;5059827;28;20450;-68
2021/01/26 02:14:09;;;;;;;5.03;4.07;;;;;;;;;;5060062;28;20532;-69
2021/01/26 02:16:43;;;;;;;4.07;3.50;;;;;;;;;;5059751;28;20473;-69
2021/01/26 02:19:20;;;;;;;5.90;3.53;;;;;;;;;;5060131;28;20477;-69
2021/01/26 02:22:10;;;;;;;4.47;3.53;;;;;;;;;;5059746;28;20463;-69
2021/01/26 02:24:58;;;;;;;8.07;3.73;;;;;;;;;;5059546;28;20568;-69
2021/01/26 02:27:57;;;;;;;3.90;3.20;;;;;;;;;;5059430;28;20554;-69
2021/01/26 02:30:31;;;;;;;4.40;3.50;;;;;;;;;;5059826;28;20454;-69
2021/01/26 02:33:17;;;;;;;6.47;4.10;;;;;;;;;;5059500;28;20456;-69
2021/01/26 02:35:58;;;;;;;4.57;3.60;;;;;;;;;;5059566;28;20526;-69
2021/01/26 02:38:39;;;;;;;3.67;3.13;;;;;;;;;;5059528;28;20448;-69
2021/01/26 02:41:14;;;;;;;4.97;3.57;;;;;;;;;;5059264;28;20813;-69
2021/01/26 02:43:44;;;;;;;6.50;3.63;;;;;;;;;;5059584;28;20448;-69
2021/01/26 02:46:16;;;;;;;4.70;3.97;;;;;;;;;;5059374;28;20581;-69
2021/01/26 02:48:56;;;;;;;4.33;3.43;;;;;;;;;;5059111;28;20503;-69
2021/01/26 02:51:28;;;;;;;5.57;4.00;;;;;;;;;;5059542;28;20476;-69
2021/01/26 02:53:58;;;;;;;5.30;3.40;;;;;;;;;;5058956;28;20883;-69
2021/01/26 02:56:31;;;;;;;4.10;3.10;;;;;;;;;;5059398;28;20446;-69
2021/01/26 02:59:00;;;;;;;5.10;3.80;;;;;;;;;;5059190;28;20439;-69
2021/01/26 03:01:31;;;;;;;6.87;3.93;;;;;;;;;;5058044;28;20524;-69
2021/01/26 03:04:02;;;;;;;4.77;4.07;;;;;;;;;;5058903;28;20851;-69
2021/01/26 03:06:30;;;;;;;4.87;4.03;;;;;;;;;;5058812;28;20492;-69
2021/01/26 03:08:59;;;;;;;4.60;3.53;;;;;;;;;;5058874;28;20453;-69
2021/01/26 03:11:28;;;;;;;6.30;3.47;;;;;;;;;;5058897;28;20448;-69
2021/01/26 03:13:58;;;;;;;4.77;3.90;;;;;;;;;;5058945;28;20481;-68
2021/01/26 03:16:27;;;;;;;6.93;4.27;;;;;;;;;;5058600;28;20460;-68
2021/01/26 03:18:59;;;;;;;5.57;3.80;;;;;;;;;;5058818;28;20457;-68
2021/01/26 03:21:26;;;;;;;5.93;3.80;;;;;;;;;;5058921;28;20933;-69
2021/01/26 03:23:56;;;;;;;4.87;3.67;;;;;;;;;;5058635;28;20822;-68
2021/01/26 03:26:24;;;;;;;4.27;3.37;;;;;;;;;;5058410;28;20523;-68
2021/01/26 03:28:54;;;;;;;6.13;3.87;;;;;;;;;;5058521;28;20445;-68
2021/01/26 03:31:25;;;;;;;5.37;4.03;;;;;;;;;;5058485;28;20452;-68
2021/01/26 03:33:53;;;;;;;3.13;2.83;;;;;;;;;;5058599;28;20434;-68
2021/01/26 03:36:21;;;;;;;5.03;3.63;;;;;;;;;;5058547;28;20437;-68
2021/01/26 03:38:49;;;;;;;3.93;3.53;;;;;;;;;;5058190;28;20488;-68
2021/01/26 03:41:18;;;;;;;6.13;3.70;;;;;;;;;;5058442;28;21299;-69
2021/01/26 03:43:45;;;;;;;4.67;3.90;;;;;;;;;;5058373;28;20480;-69
2021/01/26 03:46:17;;;;;;;6.00;3.87;;;;;;;;;;5058305;28;20492;-69
2021/01/26 03:48:50;;;;;;;6.10;4.13;;;;;;;;;;5058192;28;20456;-68
2021/01/26 03:51:26;;;;;;;5.47;4.23;;;;;;;;;;5058305;28;20468;-68
2021/01/26 03:54:09;;;;;;;3.60;3.20;;;;;;;;;;5057886;28;20920;-69
2021/01/26 03:56:43;;;;;;;4.10;3.60;;;;;;;;;;5058118;28;20536;-68
2021/01/26 03:59:18;;;;;;;5.90;4.10;;;;;;;;;;5058155;28;20451;-68
2021/01/26 04:01:48;;;;;;;4.80;3.90;;;;;;;;;;5057639;28;20428;-68
2021/01/26 04:04:18;;;;;;;5.17;4.43;;;;;;;;;;5057833;28;21050;-69
2021/01/26 04:06:46;;;;;;;7.30;3.57;;;;;;;;;;5057932;28;20552;-68
2021/01/26 04:09:14;;;;;;;6.57;4.17;;;;;;;;;;5057839;28;20447;-69
2021/01/26 04:11:46;;;;;;;4.27;3.57;;;;;;;;;;5057627;28;20533;-68
2021/01/26 04:14:14;;;;;;;4.87;3.70;;;;;;;;;;5057776;28;20948;-68
2021/01/26 04:16:44;;;;;;;5.67;4.37;;;;;;;;;;5057429;28;20445;-68
2021/01/26 04:19:14;;;;;;;6.53;4.70;;;;;;;;;;5057676;28;20449;-68
2021/01/26 04:21:41;;;;;;;5.60;4.20;;;;;;;;;;5057837;28;20475;-68
2021/01/26 04:24:08;;;;;;;5.23;3.87;;;;;;;;;;5057539;28;20473;-68
2021/01/26 04:26:36;;;;;;;6.67;4.03;;;;;;;;;;5057569;28;20495;-68
2021/01/26 04:29:03;;;;;;;4.10;3.50;;;;;;;;;;5057787;28;20477;-68
2021/01/26 04:31:30;;;;;;;5.80;4.70;;;;;;;;;;5057284;28;20475;-69
2021/01/26 04:33:57;;;;;;;5.27;4.13;;;;;;;;;;5057325;28;20894;-68
2021/01/26 04:36:25;;;;;;;7.10;3.77;;;;;;;;;;5057615;28;20532;-68
2021/01/26 04:38:52;;;;;;;5.67;4.03;;;;;;;;;;5057379;28;20473;-68
2021/01/26 04:41:24;;;;;;;5.40;4.20;;;;;;;;;;5057335;28;20532;-68
2021/01/26 04:43:59;;;;;;;4.67;4.20;;;;;;;;;;5058008;28;20496;-68
2021/01/26 04:46:29;;;;;;;5.40;3.83;;;;;;;;;;5057275;28;20488;-68
2021/01/26 04:49:02;;;;;;;10.13;4.20;;;;;;;;;;5057344;28;20822;-68
2021/01/26 04:51:33;;;;;;;5.93;4.33;;;;;;;;;;5057671;28;20441;-68
2021/01/26 04:54:18;;;;;;;5.33;3.93;;;;;;;;;;5057448;28;20445;-68
2021/01/26 04:56:50;;;;;;;5.23;3.87;;;;;;;;;;5047296;28;20456;-68
2021/01/26 04:59:32;;;;;;;5.70;4.17;;;;;;;;;;5057607;28;20517;-69
2021/01/26 05:02:07;;;;;;;4.53;3.90;;;;;;;;;;5057153;28;20480;-69
2021/01/26 05:04:38;;;;;;;4.77;3.70;;;;;;;;;;5057248;28;20468;-69
2021/01/26 05:07:09;;;;;;;8.33;4.30;;;;;;;;;;5057184;28;20508;-69
2021/01/26 05:09:39;;;;;;;7.27;4.23;;;;;;;;;;5057237;28;20452;-69
2021/01/26 05:12:07;;;;;;;5.47;4.13;;;;;;;;;;5044730;28;20452;-68
2021/01/26 05:14:36;;;;;;;5.57;4.20;;;;;;;;;;5057048;28;20472;-68
2021/01/26 05:17:06;;;;;;;7.97;4.07;;;;;;;;;;5057137;28;20448;-68
2021/01/26 05:19:35;;;;;;;5.20;3.57;;;;;;;;;;5057933;28;20453;-68
2021/01/26 05:22:06;;;;;;;5.30;4.07;;;;;;;;;;5057592;28;20444;-69
2021/01/26 05:24:35;;;;;;;4.27;3.87;;;;;;;;;;5058216;28;20521;-68
2021/01/26 05:27:03;;;;;;;8.70;4.47;;;;;;;;;;5060921;28;20484;-68
2021/01/26 05:29:30;;;;;;;9.63;4.10;;;;;;;;;;5060968;28;20472;-68
2021/01/26 05:31:58;;;;;;;6.27;4.50;;;;;;;;;;5060756;28;20449;-69
2021/01/26 05:34:28;;;;;;;5.73;3.50;;;;;;;;;;5060415;28;20507;-69
2021/01/26 05:36:55;;;;;;;4.60;3.77;;;;;;;;;;5061007;28;20455;-68
2021/01/26 05:39:24;;;;;;;5.57;3.87;;;;;;;;;;5060263;28;20483;-68
2021/01/26 05:41:52;;;;;;;5.27;3.93;;;;;;;;;;5060726;28;20530;-68
2021/01/26 05:44:21;;;;;;;7.07;4.20;;;;;;;;;;5060401;28;20456;-68
2021/01/26 05:46:48;;;;;;;4.47;3.53;;;;;;;;;;5060315;28;20481;-69
2021/01/26 05:49:31;;;;;;;5.00;3.60;;;;;;;;;;5060311;28;20449;-68
2021/01/26 05:51:59;;;;;;;6.80;4.20;;;;;;;;;;5058463;28;20445;-68
2021/01/26 05:54:26;;;;;;;6.63;3.67;;;;;;;;;;5059802;28;20492;-69
2021/01/26 05:56:54;;;;;;;8.13;4.20;;;;;;;;;;5057033;28;21008;-68
2021/01/26 05:59:26;;;;;;;7.37;3.80;;;;;;;;;;5059798;28;20452;-69
2021/01/26 06:01:53;;;;;;;8.07;4.30;;;;;;;;;;5057008;28;20437;-69
2021/01/26 06:04:26;;;;;;;7.93;5.33;;;;;;;;;;5059936;28;20472;-69
2021/01/26 06:06:54;;;;;;;6.53;4.43;;;;;;;;;;5064064;28;20504;-68
2021/01/26 06:09:32;;;;;;;5.67;4.17;;;;;;;;;;5068830;28;20468;-69
2021/01/26 06:12:14;;;;;;;5.97;3.73;;;;;;;;;;5067996;28;20520;-69
2021/01/26 06:14:42;;;;;;;7.43;4.07;;;;;;;;;;5066650;28;20464;-69
2021/01/26 06:17:10;;;;;;;6.03;4.07;;;;;;;;;;5065181;28;20441;-69
2021/01/26 06:19:38;;;;;;;4.30;3.80;;;;;;;;;;5067658;28;20446;-69
2021/01/26 06:22:06;;;;;;;4.63;3.67;;;;;;;;;;5069279;28;20452;-69
2021/01/26 06:24:34;;;;;;;5.57;3.70;;;;;;;;;;5068112;28;20462;-69
2021/01/26 06:27:23;;;;;;;5.13;4.40;;;;;;;;;;5067905;28;20820;-69
2021/01/26 06:29:57;;;;;;;5.47;4.07;;;;;;;;;;5067545;28;20920;-69
2021/01/26 06:32:30;;;;;;;6.27;4.50;;;;;;;;;;5069034;28;20445;-69
2021/01/26 06:35:09;;;;;;;6.33;4.70;;;;;;;;;;5068975;28;20480;-68
2021/01/26 06:37:58;;;;;;;7.40;5.30;;;;;;;;;;5059712;28;20529;-69
2021/01/26 06:40:35;;;;;;;6.97;4.33;;;;;;;;;;5057419;28;20477;-69
2021/01/26 06:43:04;;;;;;;6.93;4.63;;;;;;;;;;5059338;28;20437;-69
2021/01/26 06:45:35;;;;;;;5.77;4.60;;;;;;;;;;5058934;28;20458;-68
2021/01/26 06:48:12;;;;;;;8.23;5.53;;;;;;;;;;5056928;28;20477;-68
2021/01/26 06:50:48;;;;;;;5.77;4.73;;;;;;;;;;5056703;28;20433;-69
2021/01/26 06:53:20;;;;;;;11.93;5.43;;;;;;;;;;5058758;28;20439;-69
2021/01/26 06:56:02;;;;;;;8.20;5.30;;;;;;;;;;5059022;28;20532;-70
2021/01/26 06:58:45;;;;;;;8.53;5.47;;;;;;;;;;5056480;28;20453;-69
2021/01/26 07:01:22;;;;;;;7.80;5.10;;;;;;;;;;5058951;28;20464;-69
2021/01/26 07:04:04;;;;;;;10.87;5.20;;;;;;;;;;5059300;28;20547;-69
2021/01/26 07:06:37;;;;;;;5.63;4.23;;;;;;;;;;5059116;28;20489;-69
2021/01/26 07:09:22;;;;;;;7.23;5.37;;;;;;;;;;5059147;28;20445;-69
2021/01/26 07:12:07;;;;;;;9.13;5.13;;;;;;;;;;5058519;28;20476;-69
2021/01/26 07:14:40;;;;;;;7.10;5.10;;;;;;;;;;5058888;28;20461;-69
2021/01/26 07:17:09;;;;;;;6.53;5.20;;;;;;;;;;5058460;28;20453;-69
2021/01/26 07:19:56;;;;;;;8.77;5.97;;;;;;;;;;5058206;28;20850;-68
2021/01/26 07:22:46;;;;;;;6.60;5.33;;;;;;;;;;5055121;28;20475;-68
2021/01/26 07:25:30;;;;;;;9.60;4.83;;;;;;;;;;5055173;28;20461;-67
2021/01/26 07:28:06;;;;;;;8.47;5.30;;;;;;;;;;5055616;28;20484;-67
2021/01/26 07:30:35;;;;;;;8.37;5.33;;;;;;;;;;5055524;28;20441;-67
2021/01/26 07:33:06;;;;;;;8.23;4.90;;;;;;;;;;5056674;28;20450;-68
2021/01/26 07:35:35;;;;;;;12.03;5.30;;;;;;;;;;5055623;28;20465;-69
2021/01/26 07:38:07;;;;;;;10.97;5.70;;;;;;;;;;5053320;28;20488;-69
2021/01/26 07:40:39;;;;;;;9.30;5.87;;;;;;;;;;5056091;28;20564;-69
2021/01/26 07:43:10;;;;;;;8.03;5.30;;;;;;;;;;5053578;28;20434;-69
2021/01/26 07:45:46;;;;;;;10.10;5.33;;;;;;;;;;5057343;28;20964;-69
2021/01/26 07:48:18;;;;;;;6.87;4.90;;;;;;;;;;5054132;28;21016;-69
2021/01/26 07:50:47;;;;;;;7.53;4.97;;;;;;;;;;5057827;28;20449;-69
2021/01/26 07:53:17;;;;;;;9.67;6.23;;;;;;;;;;5056413;28;20446;-70
2021/01/26 07:55:48;;;;;;;9.40;4.93;;;;;;;;;;5056714;28;20549;-70
2021/01/26 07:58:16;;;;;;;7.00;5.00;;;;;;;;;;5057257;28;21001;-70
2021/01/26 08:00:45;;;;;;;9.83;4.80;;;;;;;;;;5057072;28;20445;-70
2021/01/26 08:03:12;;;;;;;6.97;4.43;;;;;;;;;;5056767;28;20931;-70
2021/01/26 08:05:43;;;;;;;7.00;5.23;;;;;;;;;;5056845;28;20964;-70
2021/01/26 08:08:16;;;;;;;8.90;5.27;;;;;;;;;;5054961;28;20481;-70
2021/01/26 08:10:43;;;;;;;7.30;4.70;;;;;;;;;;5063959;28;20498;-70
2021/01/26 08:13:11;;;;;;;9.97;5.13;;;;;;;;;;5056716;28;20816;-70
2021/01/26 08:15:40;;;;;;;11.13;5.97;;;;;;;;;;5056601;28;20567;-70
2021/01/26 08:18:21;;;;;;;6.33;4.87;;;;;;;;;;5053051;28;20438;-70
2021/01/26 08:20:48;;;;;;;8.07;5.63;;;;;;;;;;5056834;28;20532;-69
2021/01/26 08:23:25;;;;;;;9.10;5.60;;;;;;;;;;5056895;28;20448;-72
2021/01/26 08:25:54;;;;;;;8.17;5.37;;;;;;;;;;5056563;28;20476;-72
2021/01/26 08:28:41;;;;;;;8.40;5.37;;;;;;;;;;5056533;28;20592;-72
2021/01/26 08:31:24;;;;;;;6.50;5.30;;;;;;;;;;5051697;28;20484;-72
2021/01/26 08:33:51;;;;;;;8.23;5.60;;;;;;;;;;5052568;28;20480;-73
2021/01/26 08:36:27;;;;;;;6.97;5.27;;;;;;;;;;5055412;28;20473;-72
2021/01/26 08:38:55;;;;;;;17.93;6.97;;;;;;;;;;5056082;28;20504;-72
2021/01/26 08:41:40;;;;;;;12.07;5.70;;;;;;;;;;5055297;28;20441;-73
2021/01/26 08:44:08;;;;;;;5.53;3.80;;;;;;;;;;5056241;28;20994;-72
2021/01/26 08:46:37;;;;;;;7.67;4.40;;;;;;;;;;5056724;28;20637;-72
2021/01/26 08:49:06;;;;;;;6.90;3.77;;;;;;;;;;5056945;28;20442;-72
2021/01/26 08:51:34;;;;;;;5.67;3.77;;;;;;;;;;5055446;28;20443;-73
2021/01/26 08:54:01;;;;;;;5.83;4.10;;;;;;;;;;5056714;28;20442;-72
2021/01/26 08:56:39;;;;;;;8.23;3.93;;;;;;;;;;5056419;28;20469;-72
2021/01/26 08:59:08;;;;;;;6.57;3.83;;;;;;;;;;5051955;28;20472;-72
2021/01/26 09:01:47;;;;;;;3.93;3.53;;;;;;;;;;5056727;28;20987;-72
2021/01/26 09:04:32;;;;;;;2.97;2.70;;;;;;;;;;5060195;28;20874;-72
2021/01/26 09:07:00;;;;;;;4.70;3.40;;;;;;;;;;5060129;28;20568;-72
2021/01/26 09:09:46;;;;;;;6.00;3.30;;;;;;;;;;5060227;28;20456;-72
2021/01/26 09:12:13;;;;;;;6.40;3.50;;;;;;;;;;5059256;28;20441;-72
2021/01/26 09:14:41;;;;;;;4.97;3.77;;;;;;;;;;5059829;28;20967;-72
2021/01/26 09:17:10;;;;;;;7.63;3.67;;;;;;;;;;5060754;28;20483;-72
2021/01/26 09:19:40;;;;;;;4.20;3.40;;;;;;;;;;5060720;28;20437;-72
2021/01/26 09:22:09;;;;;;;7.70;3.70;;;;;;;;;;5060646;28;20449;-72
2021/01/26 09:24:36;;;;;;;5.73;3.57;;;;;;;;;;5057562;28;20798;-72
2021/01/26 09:27:21;;;;;;;4.77;3.33;;;;;;;;;;5060336;28;20485;-73
2021/01/26 09:30:00;;;;;;;5.27;3.63;;;;;;;;;;5060187;28;20436;-72
2021/01/26 09:32:27;;;;;;;7.00;3.70;;;;;;;;;;5060181;28;20961;-72
2021/01/26 09:34:55;;;;;;;7.67;3.50;;;;;;;;;;5060389;28;20493;-72
2021/01/26 09:37:24;;;;;;;6.00;3.60;;;;;;;;;;5060338;28;20444;-74
2021/01/26 09:39:51;;;;;;;5.10;3.90;;;;;;;;;;5059518;28;20834;-73
2021/01/26 09:42:19;;;;;;;4.30;3.87;;;;;;;;;;5059279;28;20454;-73
2021/01/26 09:44:56;;;;;;;3.87;3.43;;;;;;;;;;5059459;28;20463;-73
2021/01/26 09:47:23;;;;;;;6.13;3.70;;;;;;;;;;5057974;28;20476;-73
2021/01/26 09:49:50;;;;;;;5.23;4.37;;;;;;;;;;5059124;28;20487;-73
2021/01/26 09:52:18;;;;;;;6.93;4.13;;;;;;;;;;5059249;28;20472;-74
2021/01/26 09:54:52;;;;;;;6.40;3.77;;;;;;;;;;5060181;28;20457;-73
2021/01/26 09:57:20;;;;;;;5.87;4.33;;;;;;;;;;5057762;28;20453;-74
2021/01/26 09:59:47;;;;;;;9.27;4.70;;;;;;;;;;5059764;28;20434;-73
2021/01/26 10:02:15;;;;;;;8.20;4.47;;;;;;;;;;5058907;28;20434;-73
2021/01/26 10:04:44;;;;;;;9.23;4.37;;;;;;;;;;5058825;28;20457;-75
2021/01/26 10:07:22;;;;;;;10.53;4.67;;;;;;;;;;5059683;28;20469;-73
2021/01/26 10:09:50;;;;;;;5.97;4.63;;;;;;;;;;5059413;28;20945;-72
2021/01/26 10:12:19;;;;;;;13.73;5.83;;;;;;;;;;5058903;28;20437;-72
2021/01/26 10:15:01;;;;;;;9.60;4.63;;;;;;;;;;5059319;28;21022;-72
2021/01/26 10:17:29;;;;;;;4.67;4.13;;;;;;;;;;5056492;28;20500;-72
2021/01/26 10:19:57;;;;;;;8.13;4.10;;;;;;;;;;5059419;28;20442;-72
2021/01/26 10:22:25;;;;;;;4.93;3.93;;;;;;;;;;5059925;28;20218;-72
2021/01/26 10:24:53;;;;;;;7.43;4.63;;;;;;;;;;5059219;28;20223;-72
2021/01/26 10:27:21;;;;;;;10.20;4.23;;;;;;;;;;5058855;28;20332;-72
2021/01/26 10:29:49;;;;;;;7.00;4.43;;;;;;;;;;5059116;28;20681;-72
2021/01/26 10:32:36;;;;;;;5.77;4.50;;;;;;;;;;5059652;28;20302;-73
2021/01/26 10:35:21;;;;;;;5.27;3.20;;;;;;;;;;5059322;28;20223;-72
2021/01/26 10:37:48;;;;;;;5.93;3.83;;;;;;;;;;5059289;28;20693;-72
2021/01/26 10:40:22;;;;;;;7.83;4.10;;;;;;;;;;5059419;28;20243;-72
2021/01/26 10:42:56;;;;;;;7.87;3.73;;;;;;;;;;5059270;28;20201;-72
2021/01/26 10:45:34;;;;;;;11.43;3.70;;;;;;;;;;5059357;28;20222;-72
2021/01/26 10:48:06;;;;;;;9.27;3.80;;;;;;;;;;5046525;28;20231;-72
2021/01/26 10:50:33;;;;;;;9.63;4.57;;;;;;;;;;5059438;28;20215;-72
2021/01/26 10:53:00;;;;;;;5.37;3.87;;;;;;;;;;5059512;28;20298;-72
2021/01/26 10:55:28;;;;;;;10.07;4.83;;;;;;;;;;5059176;28;20218;-72
2021/01/26 10:57:56;;;;;;;9.17;4.23;;;;;;;;;;5059372;28;20273;-72
2021/01/26 11:00:26;;;;;;;6.83;4.73;;;;;;;;;;5059311;28;20219;-72
2021/01/26 11:02:53;;;;;;;6.97;5.17;;;;;;;;;;5058829;28;20608;-72
2021/01/26 11:05:21;;;;;;;5.93;4.70;;;;;;;;;;5058957;28;20235;-72
2021/01/26 11:07:48;;;;;;;4.53;3.53;;;;;;;;;;5059231;28;20227;-72
2021/01/26 11:10:16;;;;;;;5.30;3.27;;;;;;;;;;5058999;28;20206;-72
2021/01/26 11:12:44;;;;;;;4.60;3.07;;;;;;;;;;5058474;28;20222;-72
2021/01/26 11:15:12;;;;;;;5.77;3.40;;;;;;;;;;5058391;28;20476;-73
2021/01/26 11:17:39;;;;;;;5.03;3.07;;;;;;;;;;5057850;28;20508;-73
2021/01/26 11:20:07;;;;;;;8.53;3.63;;;;;;;;;;5058463;28;20710;-74
2021/01/26 11:22:34;;;;;;;5.57;3.57;;;;;;;;;;5057984;28;20202;-73
2021/01/26 11:25:01;;;;;;;4.73;3.47;;;;;;;;;;5058424;28;20314;-73
2021/01/26 11:27:28;;;;;;;5.17;3.43;;;;;;;;;;5058561;28;20477;-73
2021/01/26 11:29:56;;;;;;;3.30;2.70;;;;;;;;;;5058408;28;20425;-73
2021/01/26 11:32:23;;;;;;;5.00;3.10;;;;;;;;;;5058729;28;20445;-73
2021/01/26 11:34:51;;;;;;;4.50;2.97;;;;;;;;;;5058107;28;20464;-73
2021/01/26 11:37:17;;;;;;;5.93;3.17;;;;;;;;;;5058679;28;20453;-74
2021/01/26 11:39:44;;;;;;;3.20;2.63;;;;;;;;;;5058132;28;20511;-73
2021/01/26 11:42:11;;;;;;;3.93;2.50;;;;;;;;;;5057695;28;20286;-73
2021/01/26 11:44:43;;;;;;;4.00;2.90;;;;;;;;;;5057732;28;20468;-73
2021/01/26 11:47:10;;;;;;;5.00;2.20;;;;;;;;;;5053895;28;20233;-73
2021/01/26 11:49:38;;;;;;;4.53;3.07;;;;;;;;;;5056771;28;20194;-72
2021/01/26 11:52:05;;;;;;;4.37;2.83;;;;;;;;;;5056876;28;20976;-73
2021/01/26 11:54:32;;;;;;;8.10;3.27;;;;;;;;;;5057460;28;20456;-73
2021/01/26 11:56:59;;;;;;;2.70;2.23;;;;;;;;;;5057424;28;20433;-73
2021/01/26 11:59:26;;;;;;;4.50;3.33;;;;;;;;;;5056742;28;20430;-73
2021/01/26 12:01:54;;;;;;;9.53;3.13;;;;;;;;;;5056668;28;20532;-73
2021/01/26 12:04:22;;;;;;;4.00;3.03;;;;;;;;;;5057037;28;21004;-71
2021/01/26 12:06:49;;;;;;;5.67;2.83;;;;;;;;;;5057421;28;20445;-72
2021/01/26 12:09:16;;;;;;;4.50;2.90;;;;;;;;;;5056600;28;20480;-71
2021/01/26 12:11:43;;;;;;;5.97;3.07;;;;;;;;;;5056821;28;20552;-71
2021/01/26 12:14:10;;;;;;;3.00;2.50;;;;;;;;;;5056820;28;20451;-72
2021/01/26 12:16:37;;;;;;;4.57;2.30;;;;;;;;;;5056446;28;20450;-72
2021/01/26 12:19:04;;;;;;;3.37;2.47;;;;;;;;;;5056737;28;20801;-72
2021/01/26 12:21:32;;;;;;;8.20;2.30;;;;;;;;;;5056586;28;20553;-72
2021/01/26 12:23:59;;;;;;;4.20;1.90;;;;;;;;;;5056635;28;20483;-72
2021/01/26 12:26:26;;;;;;;2.93;1.10;;;;;;;;;;5057678;28;20477;-72
2021/01/26 12:28:53;;;;;;;1.70;1.00;;;;;;;;;;5057853;28;20489;-72
2021/01/26 12:31:20;;;;;;;1.00;0.90;;;;;;;;;;5057257;28;20536;-71
2021/01/26 12:33:47;;;;;;;4.17;1.10;;;;;;;;;;5057405;28;20219;-71
2021/01/26 12:36:14;;;;;;;1.30;1.00;;;;;;;;;;5057494;28;20237;-71
2021/01/26 12:38:42;;;;;;;3.13;1.20;;;;;;;;;;5056795;28;20219;-71
2021/01/26 12:41:09;;;;;;;1.83;1.00;;;;;;;;;;5055803;28;20440;-71
2021/01/26 12:43:36;;;;;;;4.37;2.03;;;;;;;;;;5057350;28;20461;-71
2021/01/26 12:46:02;;;;;;;5.23;2.67;;;;;;;;;;5056903;28;20798;-71
2021/01/26 12:48:29;;;;;;;1.47;1.20;;;;;;;;;;5056155;28;21006;-71
2021/01/26 12:50:57;;;;;;;3.37;1.87;;;;;;;;;;5057071;28;20452;-71
2021/01/26 12:53:24;;;;;;;1.77;1.23;;;;;;;;;;5057475;28;20459;-71
2021/01/26 12:55:53;;;;;;;6.80;3.50;;;;;;;;;;5057040;28;20539;-71
2021/01/26 12:58:20;;;;;;;4.20;1.97;;;;;;;;;;5057231;28;20929;-71
2021/01/26 13:00:47;;;;;;;5.27;1.77;;;;;;;;;;5057359;28;20472;-71
2021/01/26 13:03:14;;;;;;;6.43;1.70;;;;;;;;;;5057412;28;20461;-71
2021/01/26 13:05:41;;;;;;;5.03;1.77;;;;;;;;;;5057116;28;20473;-71
2021/01/26 13:08:08;;;;;;;3.03;1.60;;;;;;;;;;5054221;28;21029;-71
2021/01/26 13:10:35;;;;;;;2.57;1.80;;;;;;;;;;5057188;28;20445;-71
2021/01/26 13:13:03;;;;;;;3.40;2.20;;;;;;;;;;5057280;28;20441;-71
2021/01/26 13:15:30;;;;;;;2.47;2.00;;;;;;;;;;5057019;28;21052;-71
2021/01/26 13:17:58;;;;;;;2.33;2.13;;;;;;;;;;5056989;28;20446;-71
2021/01/26 13:20:25;;;;;;;2.47;2.27;;;;;;;;;;5045692;28;20441;-72
2021/01/26 13:22:57;;;;;;;2.40;1.70;;;;;;;;;;5057195;28;20445;-71
2021/01/26 13:25:25;;;;;;;2.80;2.00;;;;;;;;;;5057011;28;20568;-71
2021/01/26 13:27:53;;;;;;;4.13;1.70;;;;;;;;;;5056952;28;20485;-71
2021/01/26 13:30:26;;;;;;;2.97;2.67;;;;;;;;;;5046044;28;20913;-71
2021/01/26 13:32:53;;;;;;;2.40;2.00;;;;;;;;;;5056780;28;20448;-71
2021/01/26 13:35:22;;;;;;;3.13;2.33;;;;;;;;;;5056871;28;20468;-71
2021/01/26 13:37:49;;;;;;;6.57;2.10;;;;;;;;;;5056928;28;20437;-71
2021/01/26 13:40:17;;;;;;;3.10;2.40;;;;;;;;;;5056897;28;20906;-71
2021/01/26 13:42:44;;;;;;;3.27;1.87;;;;;;;;;;5056754;28;20525;-71
2021/01/26 13:45:11;;;;;;;3.37;2.00;;;;;;;;;;5057112;28;20545;-71
2021/01/26 13:47:39;;;;;;;2.70;1.80;;;;;;;;;;5060376;28;20226;-71
2021/01/26 13:50:08;;;;;;;1.63;1.53;;;;;;;;;;5060504;28;20252;-71
2021/01/26 13:52:35;;;;;;;2.77;2.00;;;;;;;;;;5060337;28;20571;-71
2021/01/26 13:55:01;;;;;;;3.07;1.83;;;;;;;;;;5060548;28;20227;-71
2021/01/26 13:57:28;;;;;;;2.20;2.00;;;;;;;;;;5060389;28;20283;-71
2021/01/26 13:59:55;;;;;;;3.53;1.90;;;;;;;;;;5060668;28;20199;-71
2021/01/26 14:02:22;;;;;;;10.17;2.37;;;;;;;;;;5060142;28;20230;-71
2021/01/26 14:04:50;;;;;;;2.20;1.77;;;;;;;;;;5060193;28;20591;-71
2021/01/26 14:07:26;;;;;;;5.00;2.07;;;;;;;;;;5060445;28;20571;-71
2021/01/26 14:09:53;;;;;;;2.87;1.77;;;;;;;;;;5060168;28;20210;-71
2021/01/26 14:12:20;;;;;;;2.93;1.70;;;;;;;;;;5060113;28;20508;-71
2021/01/26 14:14:47;;;;;;;9.07;2.03;;;;;;;;;;5060242;28;20548;-71
2021/01/26 14:17:14;;;;;;;3.43;1.80;;;;;;;;;;5059966;28;20274;-71
2021/01/26 14:19:41;;;;;;;3.30;1.37;;;;;;;;;;5060130;28;20234;-71
2021/01/26 14:22:09;;;;;;;2.83;1.70;;;;;;;;;;5059884;28;20453;-71
2021/01/26 14:24:36;;;;;;;3.57;1.60;;;;;;;;;;5060096;28;20564;-71
2021/01/26 14:27:03;;;;;;;2.00;1.80;;;;;;;;;;5059808;28;20532;-71
2021/01/26 14:29:30;;;;;;;5.97;2.10;;;;;;;;;;5059914;28;20919;-71
2021/01/26 14:31:57;;;;;;;2.50;1.90;;;;;;;;;;5059457;28;20449;-71
2021/01/26 14:34:24;;;;;;;3.13;2.20;;;;;;;;;;5059698;28;20465;-71
2021/01/26 14:36:51;;;;;;;3.80;1.80;;;;;;;;;;5059637;28;20449;-71
2021/01/26 14:39:20;;;;;;;2.80;1.80;;;;;;;;;;5059539;28;20546;-71
2021/01/26 14:41:47;;;;;;;3.10;2.27;;;;;;;;;;5059549;28;20499;-71
2021/01/26 14:44:14;;;;;;;3.33;2.07;;;;;;;;;;5059364;28;20475;-71
2021/01/26 14:46:41;;;;;;;4.97;2.00;;;;;;;;;;5058986;28;20814;-71
2021/01/26 14:49:08;;;;;;;3.87;2.27;;;;;;;;;;5059187;28;20527;-71
2021/01/26 14:51:35;;;;;;;5.53;2.47;;;;;;;;;;5059355;28;20871;-71
2021/01/26 14:54:02;;;;;;;4.83;2.50;;;;;;;;;;5059048;28;20474;-71
2021/01/26 14:56:29;;;;;;;6.87;2.27;;;;;;;;;;5058813;28;20473;-71
2021/01/26 14:58:57;;;;;;;3.67;2.03;;;;;;;;;;5058638;28;20476;-71
2021/01/26 15:01:24;;;;;;;4.00;2.10;;;;;;;;;;5059033;28;20433;-71